createdAt,value
2023-05-06T00:02:09.844Z,96.60
2023-05-06T00:04:37.169Z,96.60
2023-05-06T00:07:04.101Z,96.60
2023-05-06T00:09:30.918Z,96.60
2023-05-06T00:11:57.877Z,96.60
2023-05-06T00:14:24.651Z,96.60
2023-05-06T00:16:51.363Z,96.60
2023-05-06T00:19:18.226Z,96.60
2023-05-06T00:21:45.190Z,96.60
2023-05-06T00:24:12.167Z,96.60
2023-05-06T00:26:38.889Z,96.60
2023-05-06T00:29:05.707Z,96.60
2023-05-06T00:31:32.575Z,96.60
2023-05-06T00:33:59.355Z,96.60
2023-05-06T00:36:26.335Z,96.60
2023-05-06T00:38:53.054Z,96.60
2023-05-06T00:41:19.802Z,96.60
2023-05-06T00:43:46.832Z,96.60
2023-05-06T00:46:16.116Z,96.60
2023-05-06T00:48:44.210Z,96.60
2023-05-06T00:51:12.157Z,96.60
2023-05-06T00:53:39.765Z,96.60
2023-05-06T00:56:07.411Z,96.60
2023-05-06T00:58:34.990Z,96.60
2023-05-06T01:01:02.179Z,96.60
2023-05-06T01:03:29.325Z,96.60
2023-05-06T01:06:24.840Z,96.60
2023-05-06T01:09:00.965Z,96.60
2023-05-06T01:11:52.349Z,96.60
2023-05-06T01:14:33.124Z,96.60
2023-05-06T01:17:04.668Z,96.60
2023-05-06T01:19:38.947Z,96.60
2023-05-06T01:22:07.367Z,96.60
2023-05-06T01:24:41.971Z,96.60
2023-05-06T01:27:10.594Z,96.60
2023-05-06T01:29:39.572Z,96.60
2023-05-06T01:32:21.811Z,96.60
2023-05-06T01:35:19.987Z,96.60
2023-05-06T01:37:57.058Z,96.60
2023-05-06T01:40:28.056Z,96.60
2023-05-06T01:42:55.531Z,96.60
2023-05-06T01:45:27.603Z,96.60
2023-05-06T01:47:54.703Z,96.60
2023-05-06T01:50:21.933Z,96.60
2023-05-06T01:52:59.947Z,96.60
2023-05-06T01:55:27.159Z,96.60
2023-05-06T01:57:56.468Z,96.60
2023-05-06T02:00:26.231Z,96.60
2023-05-06T02:02:53.245Z,96.60
2023-05-06T02:05:20.678Z,96.60
2023-05-06T02:07:51.704Z,96.60
2023-05-06T02:10:19.455Z,96.60
2023-05-06T02:12:51.412Z,96.60
2023-05-06T02:15:18.418Z,96.60
2023-05-06T02:17:46.145Z,96.60
2023-05-06T02:20:12.990Z,96.60
2023-05-06T02:22:40.177Z,96.60
2023-05-06T02:25:07.786Z,96.60
2023-05-06T02:27:34.706Z,96.60
2023-05-06T02:30:01.651Z,96.60
2023-05-06T02:32:29.681Z,96.60
2023-05-06T02:34:56.388Z,96.60
2023-05-06T02:37:23.289Z,96.60
2023-05-06T02:39:50.039Z,96.60
2023-05-06T02:42:16.898Z,96.60
2023-05-06T02:44:45.315Z,96.60
2023-05-06T02:47:12.208Z,96.60
2023-05-06T02:49:38.965Z,96.60
2023-05-06T02:52:05.839Z,96.60
2023-05-06T02:54:32.664Z,96.60
2023-05-06T02:56:59.400Z,96.60
2023-05-06T02:59:26.238Z,96.60
2023-05-06T03:01:52.973Z,96.60
2023-05-06T03:04:20.146Z,96.60
2023-05-06T03:06:46.944Z,96.60
2023-05-06T03:09:15.318Z,96.60
2023-05-06T03:11:42.090Z,96.60
2023-05-06T03:14:09.246Z,96.60
2023-05-06T03:16:36.077Z,96.60
2023-05-06T03:19:03.831Z,96.60
2023-05-06T03:21:31.832Z,96.60
2023-05-06T03:23:59.102Z,96.60
2023-05-06T03:26:27.380Z,96.60
2023-05-06T03:28:54.508Z,96.60
2023-05-06T03:31:22.504Z,96.60
2023-05-06T03:33:49.293Z,96.60
2023-05-06T03:36:16.534Z,96.60
2023-05-06T03:38:45.697Z,96.60
2023-05-06T03:41:12.844Z,96.60
2023-05-06T03:43:40.540Z,96.60
2023-05-06T03:46:07.762Z,96.60
2023-05-06T03:48:36.266Z,96.60
2023-05-06T03:51:05.741Z,96.60
2023-05-06T03:53:32.815Z,96.60
2023-05-06T03:56:01.557Z,96.60
2023-05-06T03:58:29.486Z,96.60
2023-05-06T04:00:56.414Z,96.60
2023-05-06T04:03:23.415Z,96.60
2023-05-06T04:05:51.839Z,96.60
2023-05-06T04:08:22.935Z,96.60
2023-05-06T04:10:49.690Z,96.60
2023-05-06T04:13:25.397Z,96.60
2023-05-06T04:15:52.945Z,96.60
2023-05-06T04:18:24.169Z,96.60
2023-05-06T04:21:00.174Z,96.60
2023-05-06T04:23:28.298Z,96.60
2023-05-06T04:25:57.822Z,96.60
2023-05-06T04:28:25.332Z,96.60
2023-05-06T04:30:53.285Z,96.60
2023-05-06T04:33:25.058Z,96.60
2023-05-06T04:35:53.771Z,96.60
2023-05-06T04:38:21.795Z,96.60
2023-05-06T04:40:50.042Z,96.60
2023-05-06T04:43:17.221Z,96.60
2023-05-06T04:45:49.806Z,96.60
2023-05-06T04:48:22.377Z,96.60
2023-05-06T04:50:53.335Z,96.60
2023-05-06T04:53:20.236Z,96.60
2023-05-06T04:55:47.021Z,96.60
2023-05-06T04:58:14.578Z,96.60
2023-05-06T05:00:41.767Z,96.60
2023-05-06T05:03:09.275Z,96.60
2023-05-06T05:05:36.131Z,96.60
2023-05-06T05:08:05.378Z,96.60
2023-05-06T05:10:35.411Z,96.60
2023-05-06T05:13:02.398Z,96.60
2023-05-06T05:15:29.681Z,96.60
2023-05-06T05:17:56.631Z,96.60
2023-05-06T05:20:23.841Z,96.60
2023-05-06T05:22:50.633Z,96.60
2023-05-06T05:25:17.485Z,96.60
2023-05-06T05:27:45.636Z,96.60
2023-05-06T05:30:12.712Z,96.60
2023-05-06T05:32:39.781Z,96.60
2023-05-06T05:35:07.223Z,96.60
2023-05-06T05:37:34.163Z,96.60
2023-05-06T05:40:01.228Z,96.60
2023-05-06T05:42:28.144Z,96.60
2023-05-06T05:44:56.283Z,96.60
2023-05-06T05:47:24.090Z,96.60
2023-05-06T05:49:51.245Z,96.60
2023-05-06T05:52:18.733Z,96.60
2023-05-06T05:54:45.492Z,96.60
2023-05-06T05:57:12.228Z,96.60
2023-05-06T05:59:39.460Z,96.60
2023-05-06T06:02:07.095Z,96.60
2023-05-06T06:04:33.917Z,96.60
2023-05-06T06:07:02.008Z,96.30
2023-05-06T06:09:31.234Z,96.60
2023-05-06T06:11:59.503Z,96.60
2023-05-06T06:14:27.481Z,96.10
2023-05-06T06:16:54.318Z,96.40
2023-05-06T06:19:22.561Z,96.40
2023-05-06T06:21:49.645Z,96.50
2023-05-06T06:24:17.590Z,96.60
2023-05-06T06:26:44.346Z,96.60
2023-05-06T06:29:11.166Z,96.40
2023-05-06T06:31:40.324Z,96.30
2023-05-06T06:34:09.888Z,96.10
2023-05-06T06:36:40.151Z,95.30
2023-05-06T06:39:07.402Z,95.60
2023-05-06T06:41:34.239Z,95.30
2023-05-06T06:44:01.069Z,96.00
2023-05-06T06:46:29.473Z,95.60
2023-05-06T06:48:56.244Z,95.00
2023-05-06T06:51:23.077Z,94.50
2023-05-06T06:53:51.839Z,93.90
2023-05-06T06:56:18.820Z,92.50
2023-05-06T06:58:45.586Z,93.20
2023-05-06T07:01:12.732Z,92.90
2023-05-06T07:03:39.523Z,92.50
2023-05-06T07:06:06.468Z,92.30
2023-05-06T07:08:33.255Z,91.30
2023-05-06T07:11:00.107Z,90.80
2023-05-06T07:13:27.112Z,90.10
2023-05-06T07:15:53.918Z,90.40
2023-05-06T07:18:20.723Z,90.40
2023-05-06T07:20:47.666Z,89.80
2023-05-06T07:23:14.392Z,88.60
2023-05-06T07:25:41.377Z,88.20
2023-05-06T07:28:08.340Z,86.50
2023-05-06T07:30:39.418Z,86.20
2023-05-06T07:33:06.332Z,85.90
2023-05-06T07:35:33.308Z,85.80
2023-05-06T07:38:00.111Z,85.60
2023-05-06T07:40:27.018Z,83.60
2023-05-06T07:42:54.020Z,80.80
2023-05-06T07:45:23.460Z,81.20
2023-05-06T07:47:50.554Z,80.50
2023-05-06T07:50:17.485Z,80.20
2023-05-06T07:52:44.269Z,78.70
2023-05-06T07:55:11.604Z,78.40
2023-05-06T07:57:38.651Z,75.30
2023-05-06T08:00:06.163Z,74.00
2023-05-06T08:02:44.036Z,74.00
2023-05-06T08:05:11.409Z,72.00
2023-05-06T08:07:40.937Z,71.30
2023-05-06T08:10:09.011Z,70.20
2023-05-06T08:12:36.316Z,69.40
2023-05-06T08:15:03.418Z,68.70
2023-05-06T08:17:30.202Z,67.00
2023-05-06T08:19:56.950Z,65.80
2023-05-06T08:22:23.794Z,63.90
2023-05-06T08:24:50.642Z,63.40
2023-05-06T08:27:17.408Z,62.90
2023-05-06T08:29:44.142Z,62.40
2023-05-06T08:32:11.003Z,62.10
2023-05-06T08:34:37.864Z,60.60
2023-05-06T08:37:05.347Z,57.90
2023-05-06T08:39:32.212Z,55.80
2023-05-06T08:42:01.998Z,57.30
2023-05-06T08:44:29.295Z,56.30
2023-05-06T08:46:56.253Z,55.00
2023-05-06T08:49:23.380Z,54.00
2023-05-06T08:51:54.488Z,54.30
2023-05-06T08:54:24.913Z,54.10
2023-05-06T08:56:53.451Z,54.50
2023-05-06T08:59:24.536Z,55.60
2023-05-06T09:01:53.145Z,56.80
2023-05-06T09:04:20.072Z,57.70
2023-05-06T09:06:46.823Z,57.40
2023-05-06T09:09:14.874Z,56.70
2023-05-06T09:11:41.712Z,54.80
2023-05-06T09:14:13.499Z,52.10
2023-05-06T09:16:43.012Z,52.20
2023-05-06T09:19:10.303Z,51.60
2023-05-06T09:21:41.669Z,50.60
2023-05-06T09:24:09.749Z,49.90
2023-05-06T09:26:39.273Z,48.00
2023-05-06T09:29:06.637Z,47.20
2023-05-06T09:31:33.588Z,46.20
2023-05-06T09:34:01.040Z,46.90
2023-05-06T09:36:28.513Z,48.10
2023-05-06T09:38:56.956Z,47.50
2023-05-06T09:41:25.531Z,47.10
2023-05-06T09:43:54.249Z,46.10
2023-05-06T09:46:22.839Z,46.20
2023-05-06T09:48:51.427Z,46.10
2023-05-06T09:51:18.847Z,44.90
2023-05-06T09:53:46.193Z,44.30
2023-05-06T09:56:14.050Z,42.80
2023-05-06T09:58:41.945Z,43.70
2023-05-06T10:01:09.651Z,43.50
2023-05-06T10:03:37.347Z,44.90
2023-05-06T10:06:06.213Z,43.90
2023-05-06T10:08:37.229Z,42.90
2023-05-06T10:11:06.667Z,43.60
2023-05-06T10:13:35.144Z,42.50
2023-05-06T10:16:02.875Z,42.40
2023-05-06T10:18:30.827Z,42.70
2023-05-06T10:21:00.139Z,42.20
2023-05-06T10:23:42.321Z,40.60
2023-05-06T10:26:11.939Z,39.80
2023-05-06T10:28:41.769Z,39.50
2023-05-06T10:31:12.458Z,41.40
2023-05-06T10:33:47.207Z,41.40
2023-05-06T10:36:22.564Z,40.90
2023-05-06T10:38:54.946Z,40.80
2023-05-06T10:41:27.784Z,40.10
2023-05-06T10:43:59.837Z,40.90
2023-05-06T10:46:30.719Z,40.60
2023-05-06T10:49:06.618Z,39.80
2023-05-06T10:51:34.697Z,39.40
2023-05-06T10:54:03.665Z,40.00
2023-05-06T10:56:32.546Z,37.60
2023-05-06T10:59:09.710Z,39.20
2023-05-06T11:01:38.533Z,37.30
2023-05-06T11:04:14.008Z,38.80
2023-05-06T11:06:46.194Z,37.80
2023-05-06T11:09:24.357Z,37.70
2023-05-06T11:12:02.803Z,36.60
2023-05-06T11:14:38.258Z,37.50
2023-05-06T11:17:09.897Z,37.50
2023-05-06T11:19:38.870Z,38.90
2023-05-06T11:22:07.034Z,37.70
2023-05-06T11:24:42.171Z,37.00
2023-05-06T11:27:10.448Z,38.40
2023-05-06T11:29:37.534Z,39.20
2023-05-06T11:32:06.797Z,40.90
2023-05-06T11:34:35.348Z,41.50
2023-05-06T11:37:05.428Z,39.90
2023-05-06T11:39:39.787Z,39.90
2023-05-06T11:42:08.715Z,39.10
2023-05-06T11:44:37.998Z,40.70
2023-05-06T11:47:08.877Z,37.30
2023-05-06T11:49:44.423Z,38.00
2023-05-06T11:52:12.824Z,37.40
2023-05-06T11:54:41.918Z,37.70
2023-05-06T11:57:09.404Z,37.90
2023-05-06T11:59:38.573Z,37.90
2023-05-06T12:02:14.772Z,40.70
2023-05-06T12:04:47.023Z,40.70
2023-05-06T12:07:15.488Z,39.00
2023-05-06T12:09:51.600Z,41.00
2023-05-06T12:12:23.779Z,43.20
2023-05-06T12:14:52.864Z,40.70
2023-05-06T12:17:20.112Z,36.90
2023-05-06T12:19:47.541Z,38.00
2023-05-06T12:22:18.821Z,38.20
2023-05-06T12:24:46.510Z,39.10
2023-05-06T12:27:13.322Z,38.60
2023-05-06T12:29:40.373Z,41.30
2023-05-06T12:32:11.961Z,38.90
2023-05-06T12:34:41.769Z,40.00
2023-05-06T12:37:08.915Z,40.40
2023-05-06T12:39:36.749Z,39.60
2023-05-06T12:42:04.143Z,40.30
2023-05-06T12:44:38.750Z,39.70
2023-05-06T12:47:19.281Z,39.20
2023-05-06T12:49:48.220Z,38.80
2023-05-06T12:52:16.038Z,39.90
2023-05-06T12:54:42.995Z,39.60
2023-05-06T12:57:10.060Z,38.50
2023-05-06T12:59:37.120Z,39.30
2023-05-06T13:02:07.390Z,39.50
2023-05-06T13:04:34.219Z,39.90
2023-05-06T13:07:01.232Z,37.50
2023-05-06T13:09:28.030Z,38.60
2023-05-06T13:11:55.204Z,39.00
2023-05-06T13:14:22.685Z,40.30
2023-05-06T13:16:49.848Z,42.20
2023-05-06T13:21:46.636Z,43.10
2023-05-06T13:24:14.567Z,44.40
2023-05-06T13:26:41.486Z,43.70
2023-05-06T13:29:08.284Z,44.60
2023-05-06T13:31:35.118Z,45.50
2023-05-06T13:34:02.025Z,46.50
2023-05-06T13:36:28.828Z,46.10
2023-05-06T13:38:55.772Z,47.90
2023-05-06T13:41:22.752Z,47.60
2023-05-06T13:43:49.597Z,49.90
2023-05-06T13:46:16.346Z,49.70
2023-05-06T13:48:43.095Z,50.50
2023-05-06T13:51:09.955Z,51.30
2023-05-06T13:53:37.178Z,51.90
2023-05-06T13:56:04.170Z,52.00
2023-05-06T13:58:31.059Z,48.80
2023-05-06T14:00:57.873Z,50.70
2023-05-06T14:03:24.767Z,49.80
2023-05-06T14:05:51.926Z,49.10
2023-05-06T14:08:18.669Z,49.90
2023-05-06T14:10:45.690Z,51.20
2023-05-06T14:13:12.475Z,51.30
2023-05-06T14:15:39.317Z,51.20
2023-05-06T14:18:06.148Z,50.60
2023-05-06T14:20:33.056Z,51.20
2023-05-06T14:22:59.872Z,53.10
2023-05-06T14:25:26.776Z,51.90
2023-05-06T14:27:54.510Z,52.60
2023-05-06T14:30:21.870Z,53.30
2023-05-06T14:32:49.342Z,53.90
2023-05-06T14:35:16.216Z,56.80
2023-05-06T14:37:43.052Z,56.40
2023-05-06T14:40:10.288Z,56.70
2023-05-06T14:42:37.490Z,56.10
2023-05-06T14:45:04.850Z,56.10
2023-05-06T14:47:31.675Z,55.50
2023-05-06T14:49:58.505Z,57.00
2023-05-06T14:52:25.572Z,56.50
2023-05-06T14:54:52.586Z,57.30
2023-05-06T14:57:19.759Z,54.90
2023-05-06T14:59:46.534Z,54.30
2023-05-06T15:02:13.276Z,54.80
2023-05-06T15:04:40.071Z,55.20
2023-05-06T15:07:06.789Z,55.80
2023-05-06T15:09:33.687Z,56.40
2023-05-06T15:12:01.750Z,56.20
2023-05-06T15:14:28.568Z,55.20
2023-05-06T15:16:57.104Z,56.70
2023-05-06T15:19:24.322Z,57.40
2023-05-06T15:21:51.203Z,55.70
2023-05-06T15:24:18.062Z,55.70
2023-05-06T15:26:44.841Z,55.60
2023-05-06T15:29:11.998Z,54.60
2023-05-06T15:31:40.719Z,55.80
2023-05-06T15:34:10.378Z,54.80
2023-05-06T15:36:38.552Z,53.10
2023-05-06T15:39:05.435Z,53.10
2023-05-06T15:41:34.575Z,54.00
2023-05-06T15:44:03.090Z,53.30
2023-05-06T15:46:31.059Z,53.10
2023-05-06T15:49:21.201Z,53.10
2023-05-06T15:51:45.168Z,54.70
2023-05-06T15:54:12.003Z,54.00
2023-05-06T15:56:41.405Z,53.40
2023-05-06T15:59:08.764Z,52.60
2023-05-06T16:02:18.960Z,53.00
2023-05-06T16:04:23.669Z,54.00
2023-05-06T16:06:50.637Z,53.20
2023-05-06T16:09:17.477Z,53.70
2023-05-06T16:11:44.484Z,52.70
2023-05-06T16:14:11.211Z,52.60
2023-05-06T16:16:38.248Z,54.90
2023-05-06T16:19:05.246Z,54.30
2023-05-06T16:21:32.045Z,54.00
2023-05-06T16:24:00.835Z,55.70
2023-05-06T16:26:27.604Z,54.50
2023-05-06T16:28:54.676Z,53.80
2023-05-06T16:31:21.510Z,54.80
2023-05-06T16:33:49.245Z,54.70
2023-05-06T16:36:16.058Z,54.80
2023-05-06T16:38:43.164Z,55.20
2023-05-06T16:41:09.900Z,56.90
2023-05-06T16:43:36.726Z,56.90
2023-05-06T16:46:03.477Z,56.20
2023-05-06T16:48:30.453Z,58.80
2023-05-06T16:50:58.440Z,58.80
2023-05-06T16:53:27.631Z,58.80
2023-05-06T16:55:54.367Z,60.40
2023-05-06T16:58:21.278Z,59.80
2023-05-06T17:00:48.167Z,60.50
2023-05-06T17:03:15.219Z,60.80
2023-05-06T17:05:42.071Z,59.90
2023-05-06T17:08:10.438Z,60.30
2023-05-06T17:10:37.580Z,60.50
2023-05-06T17:13:05.186Z,62.10
2023-05-06T17:15:31.947Z,61.50
2023-05-06T17:17:58.847Z,62.30
2023-05-06T17:20:25.753Z,62.60
2023-05-06T17:22:52.647Z,63.00
2023-05-06T17:25:19.667Z,63.30
2023-05-06T17:27:46.431Z,63.00
2023-05-06T17:30:14.999Z,63.50
2023-05-06T17:32:42.474Z,63.80
2023-05-06T17:35:10.118Z,63.80
2023-05-06T17:37:37.051Z,63.90
2023-05-06T17:40:06.014Z,63.90
2023-05-06T17:42:34.392Z,64.90
2023-05-06T17:45:01.213Z,64.90
2023-05-06T17:47:29.999Z,65.30
2023-05-06T17:49:57.386Z,65.50
2023-05-06T17:52:26.469Z,65.80
2023-05-06T17:55:06.213Z,65.60
2023-05-06T17:57:38.493Z,65.60
2023-05-06T18:00:07.310Z,65.80
2023-05-06T18:02:38.776Z,65.90
2023-05-06T18:05:06.505Z,66.30
2023-05-06T18:07:34.849Z,66.70
2023-05-06T18:10:01.914Z,67.30
2023-05-06T18:12:28.821Z,67.50
2023-05-06T18:14:57.226Z,67.70
2023-05-06T18:17:24.081Z,68.40
2023-05-06T18:19:50.960Z,68.10
2023-05-06T18:22:17.793Z,68.40
2023-05-06T18:24:44.560Z,68.50
2023-05-06T18:27:12.889Z,69.10
2023-05-06T18:29:41.210Z,69.30
2023-05-06T18:32:08.416Z,69.50
2023-05-06T18:34:35.525Z,70.10
2023-05-06T18:37:02.304Z,71.50
2023-05-06T18:39:29.089Z,70.70
2023-05-06T18:41:55.945Z,70.90
2023-05-06T18:44:22.705Z,71.00
2023-05-06T18:46:49.524Z,71.10
2023-05-06T18:49:16.419Z,71.20
2023-05-06T18:51:43.189Z,71.90
2023-05-06T18:54:09.956Z,72.10
2023-05-06T18:56:37.306Z,72.10
2023-05-06T18:59:04.186Z,72.30
2023-05-06T19:01:31.051Z,72.50
2023-05-06T19:03:58.058Z,72.70
2023-05-06T19:06:24.853Z,72.90
2023-05-06T19:08:51.715Z,73.20
2023-05-06T19:11:19.114Z,73.60
2023-05-06T19:13:46.423Z,74.20
2023-05-06T19:16:14.113Z,74.20
2023-05-06T19:18:41.095Z,74.30
2023-05-06T19:21:15.041Z,75.10
2023-05-06T19:23:41.955Z,75.60
2023-05-06T19:26:11.943Z,76.30
2023-05-06T19:28:40.616Z,76.10
2023-05-06T19:31:11.157Z,76.60
2023-05-06T19:33:38.856Z,76.80
2023-05-06T19:36:06.150Z,76.80
2023-05-06T19:38:34.129Z,77.70
2023-05-06T19:41:01.275Z,77.10
2023-05-06T19:43:28.159Z,77.30
2023-05-06T19:45:55.157Z,77.40
2023-05-06T19:48:23.655Z,77.40
2023-05-06T19:50:51.468Z,77.30
2023-05-06T19:53:18.255Z,77.80
2023-05-06T19:55:45.015Z,77.40
2023-05-06T19:58:14.064Z,77.40
2023-05-06T20:00:41.111Z,77.90
2023-05-06T20:03:08.824Z,78.10
2023-05-06T20:05:35.907Z,78.10
2023-05-06T20:08:03.028Z,79.60
2023-05-06T20:10:30.274Z,79.20
2023-05-06T20:12:58.036Z,79.50
2023-05-06T20:15:26.455Z,79.30
2023-05-06T20:17:53.304Z,79.50
2023-05-06T20:20:20.406Z,79.40
2023-05-06T20:22:47.423Z,79.70
2023-05-06T20:25:16.406Z,80.30
2023-05-06T20:27:44.160Z,80.60
2023-05-06T20:30:11.306Z,80.80
2023-05-06T20:32:39.997Z,81.50
2023-05-06T20:35:07.393Z,81.30
2023-05-06T20:37:35.367Z,82.10
2023-05-06T20:40:04.595Z,82.30
2023-05-06T20:42:31.807Z,82.30
2023-05-06T20:44:59.462Z,82.50
2023-05-06T20:47:26.971Z,82.80
2023-05-06T20:49:54.439Z,83.30
2023-05-06T20:52:21.763Z,83.40
2023-05-06T20:54:48.799Z,83.60
2023-05-06T20:57:16.777Z,83.70
2023-05-06T20:59:43.913Z,84.50
2023-05-06T21:02:10.788Z,84.50
2023-05-06T21:04:37.663Z,85.00
2023-05-06T21:07:04.485Z,85.10
2023-05-06T21:09:31.339Z,85.20
2023-05-06T21:11:58.731Z,85.50
2023-05-06T21:14:26.889Z,85.50
2023-05-06T21:16:53.892Z,86.10
2023-05-06T21:19:20.966Z,86.00
2023-05-06T21:21:48.248Z,86.00
2023-05-06T21:24:15.493Z,85.90
2023-05-06T21:26:42.606Z,86.50
2023-05-06T21:29:09.651Z,86.30
2023-05-06T21:31:36.934Z,87.00
2023-05-06T21:34:07.415Z,86.90
2023-05-06T21:36:36.270Z,87.00
2023-05-06T21:39:07.884Z,87.00
2023-05-06T21:41:35.992Z,86.90
2023-05-06T21:44:07.808Z,87.40
2023-05-06T21:46:35.071Z,87.20
2023-05-06T21:49:01.960Z,88.10
2023-05-06T21:51:30.461Z,88.20
2023-05-06T21:53:57.389Z,87.80
2023-05-06T21:56:24.458Z,88.20
2023-05-06T21:58:52.433Z,88.40
2023-05-06T22:01:19.373Z,88.30
2023-05-06T22:03:46.399Z,88.60
2023-05-06T22:06:13.512Z,88.80
2023-05-06T22:08:43.670Z,88.80
2023-05-06T22:11:10.867Z,88.90
2023-05-06T22:13:37.693Z,88.50
2023-05-06T22:16:04.759Z,88.70
2023-05-06T22:18:32.067Z,88.80
2023-05-06T22:20:59.029Z,88.70
2023-05-06T22:23:27.773Z,89.00
2023-05-06T22:25:54.570Z,89.20
2023-05-06T22:28:21.768Z,89.10
2023-05-06T22:30:48.725Z,89.20
2023-05-06T22:33:15.676Z,88.80
2023-05-06T22:35:42.738Z,89.30
2023-05-06T22:38:09.610Z,89.40
2023-05-06T22:40:36.415Z,89.20
2023-05-06T22:43:03.452Z,89.40
2023-05-06T22:45:30.333Z,89.40
2023-05-06T22:47:57.119Z,89.60
2023-05-06T22:50:24.989Z,89.70
2023-05-06T22:52:51.898Z,89.30
2023-05-06T22:55:18.771Z,89.70
2023-05-06T22:57:47.034Z,89.60
2023-05-06T23:00:13.854Z,89.40
2023-05-06T23:02:40.718Z,89.50
2023-05-06T23:05:07.907Z,89.70
2023-05-06T23:07:35.007Z,89.80
2023-05-06T23:10:02.012Z,89.60
2023-05-06T23:12:35.388Z,89.50
2023-05-06T23:15:02.703Z,89.40
2023-05-06T23:17:29.479Z,89.60
2023-05-06T23:19:56.342Z,89.80
2023-05-06T23:22:23.230Z,89.30
2023-05-06T23:24:50.079Z,89.30
2023-05-06T23:27:16.934Z,89.20
2023-05-06T23:29:43.856Z,89.20
2023-05-06T23:32:10.571Z,89.50
2023-05-06T23:34:37.478Z,89.60
2023-05-06T23:37:04.317Z,89.80
2023-05-06T23:39:31.101Z,89.90
2023-05-06T23:42:00.548Z,89.60
2023-05-06T23:44:27.345Z,89.80
2023-05-06T23:46:54.345Z,89.40
2023-05-06T23:49:21.351Z,89.90
2023-05-06T23:51:48.144Z,90.00
2023-05-06T23:54:15.550Z,90.00
2023-05-06T23:56:42.299Z,90.40
2023-05-06T23:59:09.080Z,90.70
